Time;durP1;ratioP1;P1;durP2;ratioP2;P2;SDS_P1;SDS_P2;PMS_P1;PMS_P2;Temp;Humidity;BMP_temperature;BMP_pressure;BME280_temperature;BME280_humidity;BME280_pressure;Samples;Min_cycle;Max_cycle;Signal;HPM_P1;HPM_P2
2022/05/02 00:01:53;;;;;;;16.37;13.40;;;;;;;8.03;83.98;94778.51;1722284;83;21137;-50
2022/05/02 00:04:20;;;;;;;15.50;12.65;;;;;;;8.03;83.77;94779.87;1748481;82;20942;-50
2022/05/02 00:06:46;;;;;;;17.15;12.23;;;;;;;7.98;83.42;94778.25;1722414;83;21545;-51
2022/05/02 00:09:14;;;;;;;15.55;10.88;;;;;;;7.94;83.08;94774.84;1748724;82;21475;-52
2022/05/02 00:11:42;;;;;;;15.00;10.40;;;;;;;7.91;83.27;94785.28;1722334;83;21442;-50
2022/05/02 00:14:09;;;;;;;16.52;11.57;;;;;;;7.91;83.20;94783.30;1748932;82;21972;-50
2022/05/02 00:16:36;;;;;;;14.93;11.10;;;;;;;7.86;83.01;94777.59;1722388;83;21566;-50
2022/05/02 00:19:03;;;;;;;12.63;10.38;;;;;;;7.80;82.79;94784.77;1748656;82;20994;-50
2022/05/02 00:21:30;;;;;;;16.23;11.68;;;;;;;7.70;82.48;94783.06;1722249;83;20975;-50
2022/05/02 00:23:56;;;;;;;17.80;11.97;;;;;;;7.59;82.37;94783.91;1748733;82;20998;-49
2022/05/02 00:26:24;;;;;;;15.25;12.63;;;;;;;7.50;82.47;94774.16;1722175;83;21155;-50
2022/05/02 00:28:50;;;;;;;17.77;13.13;;;;;;;7.42;82.75;94783.12;1748639;82;21003;-50
2022/05/02 00:31:17;;;;;;;16.85;13.68;;;;;;;7.30;82.95;94781.05;1722290;83;21022;-51
2022/05/02 00:33:45;;;;;;;15.68;10.43;;;;;;;7.27;83.53;94782.48;1748602;82;21085;-49
2022/05/02 00:36:12;;;;;;;10.45;8.75;;;;;;;7.24;83.67;94788.23;1722175;83;20998;-50
2022/05/02 00:38:39;;;;;;;9.63;8.60;;;;;;;7.21;83.57;94791.03;1722231;82;21255;-49
2022/05/02 00:41:06;;;;;;;17.32;9.55;;;;;;;7.12;83.52;94786.75;1722076;82;21058;-50
2022/05/02 00:43:33;;;;;;;10.70;8.65;;;;;;;7.04;83.78;94787.33;1722311;82;20994;-50
2022/05/02 00:46:00;;;;;;;12.13;9.58;;;;;;;6.98;83.97;94789.00;1722040;82;20954;-49
2022/05/02 00:48:29;;;;;;;15.50;9.58;;;;;;;6.89;84.00;94788.20;1722279;82;21132;-50
2022/05/02 00:50:55;;;;;;;16.95;10.72;;;;;;;6.83;83.96;94790.48;1722256;83;21061;-51
2022/05/02 00:53:23;;;;;;;9.93;8.45;;;;;;;6.78;84.37;94786.30;1748616;82;20931;-49
2022/05/02 00:55:49;;;;;;;13.58;9.23;;;;;;;6.82;84.76;94784.83;1722123;83;20986;-49
2022/05/02 00:58:16;;;;;;;12.78;9.50;;;;;;;6.85;84.98;94783.41;1748831;82;21534;-49
2022/05/02 01:00:43;;;;;;;12.23;8.68;;;;;;;6.89;85.00;94788.81;1722221;83;20966;-51
2022/05/02 01:03:12;;;;;;;13.05;9.45;;;;;;;6.88;84.76;94783.17;1749088;82;21265;-50
2022/05/02 01:07:08;;;;;;;15.85;10.85;;;;;;;6.79;84.62;94779.63;1722427;83;21510;-49
2022/05/02 01:08:08;;;;;;;19.48;11.97;;;;;;;6.71;84.73;94780.95;1745576;82;21478;-50
2022/05/02 01:10:36;;;;;;;15.90;11.60;;;;;;;6.65;84.77;94785.38;1722255;83;20951;-50
2022/05/02 01:13:03;;;;;;;16.62;11.18;;;;;;;6.62;84.85;94778.61;1748573;82;20959;-49
2022/05/02 01:15:30;;;;;;;12.80;9.58;;;;;;;6.57;84.91;94779.11;1707950;83;21313;-50
2022/05/02 01:17:56;;;;;;;9.78;7.62;;;;;;;6.52;84.96;94779.61;1722159;82;21015;-49
2022/05/02 01:20:24;;;;;;;13.55;9.73;;;;;;;6.43;84.88;94775.27;1722668;83;20959;-51
2022/05/02 01:22:51;;;;;;;8.10;7.30;;;;;;;6.33;85.12;94770.80;1722400;82;21002;-49
2022/05/02 01:25:17;;;;;;;10.95;7.65;;;;;;;6.28;85.34;94773.41;1722356;82;21015;-50
2022/05/02 01:27:45;;;;;;;15.30;9.05;;;;;;;6.19;85.30;94779.25;1722350;83;21829;-49
2022/05/02 01:30:13;;;;;;;16.48;12.47;;;;;;;6.04;85.47;94769.77;1722361;83;21019;-49
2022/05/02 01:32:39;;;;;;;19.98;14.28;;;;;;;5.94;86.05;94771.49;1749150;82;20958;-50
2022/05/02 01:35:09;;;;;;;18.07;10.38;;;;;;;5.95;86.56;94768.19;1722441;83;21517;-48
2022/05/02 01:37:36;;;;;;;12.05;8.25;;;;;;;5.96;86.70;94771.09;1726109;82;21058;-48
2022/05/02 01:40:04;;;;;;;7.62;6.92;;;;;;;5.95;86.59;94769.55;1722436;83;21410;-50
2022/05/02 01:42:30;;;;;;;9.78;8.75;;;;;;;5.93;86.80;94769.20;1746105;82;21030;-50
2022/05/02 01:44:57;;;;;;;10.68;8.95;;;;;;;5.91;86.85;94768.23;1718945;82;21506;-49
2022/05/02 01:47:24;;;;;;;11.10;9.20;;;;;;;5.89;86.93;94765.16;1799858;79;21411;-50
2022/05/02 01:49:50;;;;;;;18.82;10.25;;;;;;;5.85;86.92;94760.94;1799761;79;20947;-49
2022/05/02 01:52:17;;;;;;;15.90;11.20;;;;;;;5.84;87.22;94764.86;1799648;79;21986;-50
2022/05/02 01:54:44;;;;;;;18.52;11.78;;;;;;;5.85;87.44;94762.30;1719011;83;21492;-50
2022/05/02 01:57:10;;;;;;;11.50;9.78;;;;;;;5.83;87.32;94764.07;1799708;79;20967;-50
2022/05/02 01:59:37;;;;;;;13.35;10.32;;;;;;;5.77;87.16;94760.86;1799999;79;20978;-50
2022/05/02 02:02:04;;;;;;;12.35;9.28;;;;;;;5.72;87.20;94759.95;1799719;79;20955;-49
2022/05/02 02:07:17;;;;;;;9.18;8.15;;;;;;;5.70;87.08;94759.02;1718975;83;21003;-50
2022/05/02 02:09:44;;;;;;;11.65;8.98;;;;;;;5.65;86.87;94750.53;1799736;79;21020;-50
2022/05/02 02:12:11;;;;;;;16.65;11.40;;;;;;;5.61;86.95;94749.83;1799633;79;20943;-49
2022/05/02 02:14:37;;;;;;;20.32;14.95;;;;;;;5.59;87.03;94749.47;1799654;79;20983;-51
2022/05/02 02:17:04;;;;;;;21.85;14.50;;;;;;;5.55;87.19;94754.98;1799641;79;21244;-51
2022/05/02 02:19:31;;;;;;;23.15;14.15;;;;;;;5.52;87.25;94757.17;1799643;79;20943;-50
2022/05/02 02:22:16;;;;;;;17.17;10.35;;;;;;;5.52;87.58;94750.93;1799910;79;21026;-49
2022/05/02 02:24:26;;;;;;;10.38;8.90;;;;;;;5.54;87.61;94745.25;1716547;83;21468;-50
2022/05/02 02:26:54;;;;;;;12.00;9.85;;;;;;;5.57;87.49;94742.30;1799639;79;20995;-49
2022/05/02 02:29:21;;;;;;;20.08;11.00;;;;;;;5.57;87.30;94742.30;1799585;79;21151;-51
2022/05/02 02:31:47;;;;;;;15.83;11.85;;;;;;;5.57;87.43;94747.75;1799556;79;20974;-50
2022/05/02 02:34:14;;;;;;;18.92;13.10;;;;;;;5.61;87.70;94745.73;1799575;79;20998;-52
2022/05/02 02:36:41;;;;;;;11.83;10.63;;;;;;;5.67;87.68;94744.84;1794027;79;21042;-52
2022/05/02 02:39:08;;;;;;;13.95;11.33;;;;;;;5.72;87.73;94743.58;1799381;79;21046;-50
2022/05/02 02:41:35;;;;;;;15.18;10.70;;;;;;;5.75;87.80;94749.59;1799583;79;21764;-49
2022/05/02 02:44:01;;;;;;;15.83;10.43;;;;;;;5.79;87.85;94750.33;1799554;79;20948;-51
2022/05/02 02:46:28;;;;;;;12.00;10.05;;;;;;;5.79;87.62;94751.08;1799638;79;20975;-50
2022/05/02 02:48:56;;;;;;;18.45;11.03;;;;;;;5.83;87.84;94751.78;1799541;79;21029;-50
2022/05/02 02:51:22;;;;;;;25.00;12.15;;;;;;;5.86;87.37;94746.09;1799579;79;20955;-49
2022/05/02 02:53:50;;;;;;;20.90;11.15;;;;;;;5.84;87.19;94748.48;1799690;79;21950;-49
2022/05/02 02:56:17;;;;;;;20.57;11.03;;;;;;;5.79;87.24;94747.59;1799455;79;20991;-50
2022/05/02 02:58:43;;;;;;;13.70;11.18;;;;;;;5.80;87.45;94753.23;1799725;79;20959;-50
2022/05/02 03:01:10;;;;;;;12.25;9.70;;;;;;;5.81;87.34;94756.14;1799691;79;20979;-49
2022/05/02 03:03:37;;;;;;;12.33;9.48;;;;;;;5.85;87.46;94755.48;1799636;79;21038;-51
2022/05/02 03:06:05;;;;;;;14.07;9.60;;;;;;;5.86;87.05;94761.90;1770641;79;21125;-49
2022/05/02 03:08:41;;;;;;;13.08;10.15;;;;;;;5.87;87.05;94757.98;1747314;82;21467;-50
2022/05/02 03:11:04;;;;;;;11.57;9.48;;;;;;;5.93;87.51;94758.28;1682449;85;20987;-50
2022/05/02 03:13:31;;;;;;;16.40;10.43;;;;;;;6.02;87.35;94766.69;1747919;82;21456;-49
2022/05/02 03:15:58;;;;;;;16.00;10.60;;;;;;;6.02;86.87;94757.13;1747732;82;20994;-50
2022/05/02 03:18:24;;;;;;;18.62;10.50;;;;;;;6.01;86.79;94765.14;1683404;85;21166;-50
2022/05/02 03:20:52;;;;;;;15.70;10.23;;;;;;;6.01;86.74;94754.22;1747537;82;20966;-49
2022/05/02 03:23:19;;;;;;;19.30;10.23;;;;;;;6.01;86.51;94762.41;1747696;82;21014;-49
2022/05/02 03:25:47;;;;;;;17.55;12.37;;;;;;;5.96;86.31;94760.17;1683443;85;20999;-50
2022/05/02 03:28:13;;;;;;;18.05;11.43;;;;;;;5.89;86.48;94755.60;1747702;82;20986;-50
2022/05/02 03:30:40;;;;;;;16.87;10.98;;;;;;;5.88;86.47;94756.00;1683612;85;21150;-49
2022/05/02 03:33:07;;;;;;;19.10;10.90;;;;;;;5.87;86.44;94761.29;1683303;85;20990;-50
2022/05/02 03:35:33;;;;;;;20.77;11.90;;;;;;;5.86;86.50;94757.80;1747542;82;20962;-50
2022/05/02 03:38:00;;;;;;;22.80;13.35;;;;;;;5.86;86.25;94759.75;1683458;85;21083;-49
2022/05/02 03:40:26;;;;;;;18.57;12.95;;;;;;;5.81;86.31;94756.14;1683420;85;21015;-50
2022/05/02 03:42:53;;;;;;;40.12;15.28;;;;;;;5.83;86.72;94759.22;1751070;81;21403;-50
2022/05/02 03:45:20;;;;;;;27.10;13.95;;;;;;;5.91;86.84;94757.89;1752995;81;20986;-50
2022/05/02 03:47:47;;;;;;;21.55;14.13;;;;;;;5.91;86.41;94759.27;1753257;81;21018;-51
2022/05/02 03:50:14;;;;;;;28.42;14.05;;;;;;;5.94;86.27;94754.36;1753288;81;21007;-50
2022/05/02 03:52:40;;;;;;;31.73;14.73;;;;;;;5.96;86.35;94757.44;1753177;81;20990;-50
2022/05/02 03:55:08;;;;;;;23.40;13.72;;;;;;;6.00;86.47;94754.05;1753361;81;21950;-51
2022/05/02 03:57:36;;;;;;;34.63;18.77;;;;;;;6.01;86.47;94761.80;1753064;81;21605;-50
2022/05/02 04:00:04;;;;;;;34.95;19.67;;;;;;;6.05;86.55;94761.17;1753222;81;21069;-50
2022/05/02 04:02:33;;;;;;;32.42;19.42;;;;;;;6.14;86.83;94763.35;1752151;81;21083;-49
2022/05/02 04:05:00;;;;;;;22.90;15.10;;;;;;;6.21;86.50;94760.48;1753163;81;20947;-50
2022/05/02 04:07:27;;;;;;;21.57;13.78;;;;;;;6.28;86.42;94763.06;1753175;81;21096;-49
2022/05/02 04:09:53;;;;;;;17.45;12.23;;;;;;;6.36;86.40;94763.13;1753181;81;20983;-50
2022/05/02 04:12:20;;;;;;;12.55;10.18;;;;;;;6.44;86.51;94761.78;1753185;81;21006;-51
2022/05/02 04:14:48;;;;;;;9.88;8.88;;;;;;;6.50;86.27;94760.13;1753194;81;21037;-51
2022/05/02 04:17:15;;;;;;;23.10;11.40;;;;;;;6.58;86.21;94765.61;1753162;81;21053;-51
2022/05/02 04:19:42;;;;;;;22.15;13.72;;;;;;;6.65;85.89;94765.46;1753201;81;21164;-51
2022/05/02 04:22:09;;;;;;;22.87;14.00;;;;;;;6.66;85.62;94767.03;1753111;81;21569;-53
2022/05/02 04:24:35;;;;;;;19.50;14.43;;;;;;;6.69;85.65;94769.67;1753149;81;21093;-52
2022/05/02 04:27:03;;;;;;;24.60;15.43;;;;;;;6.72;85.38;94765.34;1753133;81;20966;-50
2022/05/02 04:29:30;;;;;;;34.40;19.65;;;;;;;6.73;85.17;94764.14;1753199;81;21002;-52
2022/05/02 04:31:56;;;;;;;36.48;22.70;;;;;;;6.75;85.08;94761.75;1753239;81;21105;-51
2022/05/02 04:34:23;;;;;;;24.72;18.95;;;;;;;6.83;84.88;94771.34;1753124;81;21438;-50
2022/05/02 04:36:50;;;;;;;29.52;19.02;;;;;;;6.91;84.77;94764.55;1753233;81;20975;-51
2022/05/02 04:39:16;;;;;;;37.35;24.92;;;;;;;7.00;84.72;94760.05;1753152;81;21522;-52
2022/05/02 04:41:43;;;;;;;42.43;24.15;;;;;;;7.09;84.44;94763.73;1753150;81;21014;-56
2022/05/02 04:44:11;;;;;;;76.05;22.70;;;;;;;7.16;84.25;94763.57;1747638;81;21828;-57
2022/05/02 04:46:38;;;;;;;46.65;21.82;;;;;;;7.26;84.15;94765.90;1747484;82;20971;-56
2022/05/02 04:49:04;;;;;;;34.90;20.85;;;;;;;7.35;83.84;94755.91;1747522;82;20962;-57
2022/05/02 04:51:31;;;;;;;31.80;19.10;;;;;;;7.42;83.52;94759.87;1747662;82;21483;-50
2022/05/02 04:53:57;;;;;;;25.02;17.35;;;;;;;7.46;83.32;94760.55;1747664;82;21074;-52
2022/05/02 04:56:24;;;;;;;19.42;14.38;;;;;;;7.54;83.35;94756.44;1747803;82;21285;-50
2022/05/02 04:58:51;;;;;;;47.58;15.13;;;;;;;7.70;83.43;94757.81;1683487;85;21438;-49
2022/05/02 05:01:17;;;;;;;24.75;11.63;;;;;;;7.91;83.11;94751.80;1683464;85;21014;-50
2022/05/02 05:03:44;;;;;;;14.95;9.55;;;;;;;8.08;82.37;94753.33;1663720;85;20998;-49
2022/05/02 05:06:10;;;;;;;13.93;8.63;;;;;;;8.25;81.53;94752.13;1747695;82;20999;-50
2022/05/02 05:08:37;;;;;;;16.48;10.23;;;;;;;8.43;80.54;94755.16;1747717;82;21780;-50
2022/05/02 05:11:24;;;;;;;12.65;9.05;;;;;;;8.57;80.01;94749.30;1683417;85;20974;-49
2022/05/02 05:17:44;;;;;;;13.43;8.78;;;;;;;8.75;78.25;94747.42;1747655;82;21042;-50
2022/05/02 05:20:43;;;;;;;10.93;8.60;;;;;;;8.82;77.53;94741.75;1747760;82;21018;-51
2022/05/02 05:23:52;;;;;;;9.78;7.50;;;;;;;8.90;76.75;94741.11;1747622;82;21163;-49
2022/05/02 05:26:48;;;;;;;12.58;7.40;;;;;;;8.95;76.19;94738.60;1735252;81;21011;-51
2022/05/02 05:29:43;;;;;;;14.63;6.60;;;;;;;9.08;75.88;94739.98;1751507;81;21006;-50
2022/05/02 05:32:30;;;;;;;14.58;6.97;;;;;;;9.18;75.46;94738.89;1760643;81;20983;-51
2022/05/02 05:35:08;;;;;;;15.28;7.33;;;;;;;9.29;75.04;94737.97;1748351;81;21507;-52
2022/05/02 05:38:02;;;;;;;15.30;7.03;;;;;;;9.42;74.56;94736.76;1744419;81;21838;-51
2022/05/02 05:40:44;;;;;;;12.93;8.28;;;;;;;9.54;73.91;94736.59;1745044;79;21093;-52
2022/05/02 05:43:50;;;;;;;20.43;7.57;;;;;;;9.63;73.51;94738.08;1667561;84;21081;-51
2022/05/02 05:46:58;;;;;;;12.10;7.15;;;;;;;9.74;73.28;94733.78;1675871;83;21330;-52
2022/05/02 05:49:33;;;;;;;15.53;8.35;;;;;;;9.87;72.57;94720.80;1671657;85;21445;-53
2022/05/02 05:52:20;;;;;;;16.42;7.58;;;;;;;9.97;72.24;94726.53;1644554;84;21119;-53
2022/05/02 05:55:05;;;;;;;7.33;6.50;;;;;;;10.04;72.04;94722.81;1659740;84;21086;-55
2022/05/02 05:57:49;;;;;;;16.55;7.42;;;;;;;10.19;71.86;94721.13;1670410;84;21117;-50
2022/05/02 06:00:16;;;;;;;8.60;6.80;;;;;;;10.37;71.30;94718.53;1666925;84;21073;-53
2022/05/02 06:03:15;;;;;;;18.95;8.53;;;;;;;10.55;70.73;94720.05;1666527;84;21056;-50
2022/05/02 06:05:46;;;;;;;10.30;7.50;;;;;;;10.69;70.26;94718.17;1719184;81;22016;-57
2022/05/02 06:08:18;;;;;;;11.33;6.40;;;;;;;10.84;69.59;94713.81;1689534;83;21576;-53
2022/05/02 06:10:47;;;;;;;10.03;6.97;;;;;;;10.98;69.50;94713.30;1658252;84;26483;-54
2022/05/02 06:13:16;;;;;;;8.60;6.78;;;;;;;11.20;69.29;94702.26;1733838;81;21457;-55
2022/05/02 06:18:37;;;;;;;13.93;6.95;;;;;;;11.65;68.36;94712.09;1723591;81;21282;-54
2022/05/02 06:21:07;;;;;;;8.05;6.87;;;;;;;11.87;67.48;94712.17;1696343;81;21261;-52
2022/05/02 06:23:45;;;;;;;12.40;7.28;;;;;;;12.00;66.60;94704.55;1725288;81;21066;-51
2022/05/02 06:26:13;;;;;;;7.45;6.15;;;;;;;12.05;65.98;94699.80;1730610;81;20987;-53
2022/05/02 06:28:44;;;;;;;9.03;5.97;;;;;;;12.10;65.61;94696.43;1668357;81;21013;-52
2022/05/02 06:31:17;;;;;;;9.13;7.40;;;;;;;12.16;65.81;94701.52;1737993;81;21236;-55
2022/05/02 06:33:48;;;;;;;29.70;6.83;;;;;;;12.28;64.83;94694.32;1729754;81;21906;-54
2022/05/02 06:36:30;;;;;;;12.40;6.67;;;;;;;12.39;64.64;94694.02;1702713;81;21018;-52
2022/05/02 06:39:18;;;;;;;7.00;5.40;;;;;;;12.52;63.70;94684.98;1733099;81;21051;-52
2022/05/02 06:42:12;;;;;;;10.65;6.33;;;;;;;12.70;62.87;94686.34;1662543;84;20929;-56
2022/05/02 06:45:15;;;;;;;10.18;5.42;;;;;;;12.83;62.38;94678.64;1687329;83;21411;-55
2022/05/02 06:48:04;;;;;;;;;;;;;;;13.04;62.10;94681.24;1742245;79;20995;-52
2022/05/02 06:50:32;;;;;;;6.42;4.87;;;;;;;13.39;61.03;94680.20;1746609;79;20192;-53
2022/05/02 06:53:14;;;;;;;7.00;5.60;;;;;;;13.51;59.93;94670.95;1747844;79;21011;-53
2022/05/02 06:56:06;;;;;;;8.53;5.47;;;;;;;13.65;59.46;94676.55;1752093;79;21081;-53
2022/05/02 06:59:12;;;;;;;;;;;;;;;13.78;58.92;94668.06;1752637;79;21290;-55
2022/05/02 07:01:57;;;;;;;6.03;5.20;;;;;;;13.97;58.80;94673.64;1752226;79;20609;-54
2022/05/02 07:04:50;;;;;;;8.08;5.35;;;;;;;14.16;57.58;94654.33;1750337;79;20984;-54
2022/05/02 07:08:05;;;;;;;16.27;9.43;;;;;;;14.21;57.69;94660.59;1747785;79;21053;-52
2022/05/02 07:10:35;;;;;;;16.02;7.90;;;;;;;14.28;57.47;94654.08;1747823;80;20997;-52
2022/05/02 07:13:11;;;;;;;7.78;5.30;;;;;;;14.48;56.55;94656.98;1754797;79;21234;-52
2022/05/02 07:15:55;;;;;;;7.17;6.47;;;;;;;14.61;56.11;94649.95;1746010;79;21079;-53
2022/05/02 07:18:54;;;;;;;8.65;5.33;;;;;;;14.67;55.72;94653.58;1757549;79;22304;-55
2022/05/02 07:21:39;;;;;;;11.25;5.20;;;;;;;14.77;55.56;94650.87;1741684;79;21042;-54
2022/05/02 07:24:45;;;;;;;6.33;4.90;;;;;;;14.88;55.29;94655.25;1745063;79;21034;-54
2022/05/02 07:27:20;;;;;;;9.98;5.47;;;;;;;14.90;55.15;94654.75;1756998;79;21161;-54
2022/05/02 07:29:47;;;;;;;18.02;5.87;;;;;;;14.94;55.26;94653.94;1737273;79;21451;-53
2022/05/02 07:32:14;;;;;;;15.58;5.47;;;;;;;15.01;55.28;94656.34;1733664;79;21488;-54
2022/05/02 07:34:41;;;;;;;7.12;5.30;;;;;;;15.09;55.00;94649.16;1735189;79;21788;-57
2022/05/02 07:37:09;;;;;;;5.28;4.72;;;;;;;15.21;54.84;94644.71;1753506;79;21018;-53
2022/05/02 07:39:39;;;;;;;6.58;4.62;;;;;;;15.36;54.51;94646.13;1686340;83;21255;-54
2022/05/02 07:42:07;;;;;;;5.70;5.00;;;;;;;15.48;54.31;94641.66;1706081;79;22227;-55
2022/05/02 07:44:34;;;;;;;7.62;6.05;;;;;;;15.59;54.76;94648.00;1751581;79;21030;-60
2022/05/02 07:47:03;;;;;;;9.08;5.25;;;;;;;15.71;55.28;94647.67;1749118;79;21493;-52
2022/05/02 07:49:30;;;;;;;8.03;5.20;;;;;;;15.77;55.45;94646.38;1757922;79;21015;-54
2022/05/02 07:51:57;;;;;;;9.93;5.90;;;;;;;15.87;55.59;94655.48;1755532;79;21154;-52
2022/05/02 07:54:33;;;;;;;10.98;5.58;;;;;;;15.96;55.59;94650.43;1747629;79;21527;-58
2022/05/02 07:57:02;;;;;;;12.37;6.60;;;;;;;16.08;55.83;94647.31;1690895;82;21016;-55
2022/05/02 07:59:34;;;;;;;13.80;8.38;;;;;;;16.20;55.80;94651.00;1732992;80;21066;-55
2022/05/02 08:02:05;;;;;;;14.25;6.78;;;;;;;16.32;56.34;94649.26;1751166;79;37365;-52
2022/05/02 08:04:32;;;;;;;8.48;6.00;;;;;;;16.38;55.01;94651.53;1752209;79;21125;-51
2022/05/02 08:07:26;;;;;;;11.00;5.55;;;;;;;16.46;54.58;94645.67;1755297;79;21008;-52
2022/05/02 08:10:22;;;;;;;5.90;4.45;;;;;;;16.54;54.31;94648.19;1750193;79;21022;-55
2022/05/02 08:13:05;;;;;;;10.00;4.20;;;;;;;16.65;52.39;94639.96;1755792;79;21038;-53
2022/05/02 08:15:37;;;;;;;5.83;4.60;;;;;;;16.71;52.34;94632.47;1739126;79;21586;-54
2022/05/02 08:18:39;;;;;;;6.37;4.67;;;;;;;16.74;49.58;94628.06;1732111;80;22376;-54
2022/05/02 08:21:16;;;;;;;3.92;3.08;;;;;;;16.73;48.80;94638.30;1724807;79;21030;-57
2022/05/02 08:27:24;;;;;;;6.62;3.52;;;;;;;16.78;46.00;94629.25;1755106;79;20986;-54
2022/05/02 08:30:08;;;;;;;;;;;;;;;17.01;44.71;94619.87;1762070;79;21058;-51
2022/05/02 08:33:00;;;;;;;5.53;4.15;;;;;;;17.33;46.15;94618.64;1754424;79;21257;-55
2022/05/02 08:35:51;;;;;;;11.08;4.33;;;;;;;17.66;48.27;94621.70;1758266;79;21560;-54
2022/05/02 08:38:55;;;;;;;7.28;3.52;;;;;;;18.04;48.95;94615.62;1753096;79;21394;-54
2022/05/02 08:41:39;;;;;;;4.47;3.67;;;;;;;18.41;47.71;94619.86;1754129;79;21926;-54
2022/05/02 08:44:59;;;;;;;7.37;4.47;;;;;;;18.79;48.19;94620.00;1703758;79;21510;-55
2022/05/02 08:47:41;;;;;;;6.78;3.98;;;;;;;19.17;47.03;94620.73;1689835;83;21602;-58
2022/05/02 08:50:25;;;;;;;7.78;4.30;;;;;;;19.45;45.82;94627.10;1681980;80;21038;-56
2022/05/02 08:53:29;;;;;;;5.78;3.85;;;;;;;19.72;44.71;94632.55;1686277;84;21511;-53
2022/05/02 08:56:07;;;;;;;10.60;3.70;;;;;;;19.92;43.11;94631.62;1689101;84;21528;-54
2022/05/02 08:59:09;;;;;;;5.45;3.58;;;;;;;19.92;41.46;94646.23;1628225;84;21051;-54
2022/05/02 09:01:48;;;;;;;10.55;3.90;;;;;;;19.67;41.89;94645.23;1676867;84;20977;-52
2022/05/02 09:04:27;;;;;;;4.10;3.62;;;;;;;19.32;42.33;94644.97;1671212;84;21503;-54
2022/05/02 09:07:20;;;;;;;4.60;3.60;;;;;;;18.90;43.65;94642.34;1677163;84;20972;-51
2022/05/02 09:10:05;;;;;;;8.15;3.80;;;;;;;18.55;43.66;94643.98;1683585;84;20995;-53
2022/05/02 09:13:07;;;;;;;10.13;4.03;;;;;;;18.27;43.56;94650.83;1677881;84;21548;-55
2022/05/02 09:16:07;;;;;;;4.40;3.30;;;;;;;18.11;44.33;94645.77;1672467;84;21212;-54
2022/05/02 09:19:24;;;;;;;6.25;3.47;;;;;;;17.96;44.27;94648.73;1666146;84;21087;-55
2022/05/02 09:22:02;;;;;;;4.85;3.70;;;;;;;17.74;45.01;94664.50;1666750;84;21054;-52
2022/05/02 09:24:54;;;;;;;17.50;6.03;;;;;;;17.56;45.14;94665.65;1669048;84;21051;-51
2022/05/02 09:27:55;;;;;;;7.37;5.23;;;;;;;17.54;44.80;94668.78;1676233;84;21887;-53
2022/05/02 09:30:40;;;;;;;26.12;9.10;;;;;;;17.51;46.06;94669.16;1670572;84;21155;-53
2022/05/02 09:33:33;;;;;;;25.52;11.12;;;;;;;17.34;47.46;94671.64;1627832;86;21049;-56
2022/05/02 09:36:07;;;;;;;27.87;8.55;;;;;;;17.00;49.47;94667.77;1624371;86;21065;-52
2022/05/02 09:38:51;;;;;;;10.32;7.60;;;;;;;16.74;50.93;94668.99;1668339;83;21119;-53
2022/05/02 09:41:26;;;;;;;15.50;5.97;;;;;;;16.57;51.42;94674.34;1671002;84;21580;-51
2022/05/02 09:49:33;;;;;;;24.43;11.03;;;;;;;16.21;52.27;94680.28;1674053;83;21119;-54
2022/05/02 09:51:09;;;;;;;20.05;12.05;;;;;;;15.94;53.89;94683.45;1680896;83;20983;-52
2022/05/02 09:53:51;;;;;;;19.80;11.50;;;;;;;15.59;55.63;94682.66;1679442;83;21058;-54
2022/05/02 09:56:38;;;;;;;22.15;11.43;;;;;;;15.37;56.04;94679.54;1675876;83;21073;-55
2022/05/02 09:59:23;;;;;;;15.78;10.43;;;;;;;15.19;56.13;94682.48;1677101;83;21456;-54
2022/05/02 10:02:18;;;;;;;20.00;10.10;;;;;;;14.98;56.72;94681.60;1683634;83;21492;-55
2022/05/02 10:05:07;;;;;;;22.48;11.45;;;;;;;14.90;57.34;94681.84;1693221;83;21585;-53
2022/05/02 10:07:48;;;;;;;19.70;11.68;;;;;;;14.87;57.79;94675.10;1681707;83;21539;-54
2022/05/02 10:10:26;;;;;;;19.17;11.88;;;;;;;14.88;58.31;94673.25;1672716;83;21569;-52
2022/05/02 10:13:05;;;;;;;14.68;9.50;;;;;;;14.95;58.31;94673.47;1696765;83;21169;-54
2022/05/02 10:16:06;;;;;;;16.62;9.60;;;;;;;14.96;58.54;94661.92;1693105;83;20918;-53
2022/05/02 10:19:02;;;;;;;16.62;9.08;;;;;;;14.99;57.72;94661.60;1683146;83;21327;-55
2022/05/02 10:21:58;;;;;;;16.40;9.68;;;;;;;15.05;57.70;94664.62;1637447;83;21050;-56
2022/05/02 10:25:01;;;;;;;16.25;8.20;;;;;;;15.11;56.22;94659.15;1692842;83;21478;-56
2022/05/02 10:27:35;;;;;;;17.42;9.35;;;;;;;15.21;55.31;94646.73;1690332;83;22256;-54
2022/05/02 10:30:11;;;;;;;14.80;7.70;;;;;;;15.31;55.48;94646.17;1703077;83;21218;-54
2022/05/02 10:32:54;;;;;;;15.55;8.58;;;;;;;15.43;54.59;94642.34;1690234;83;21058;-53
2022/05/02 10:35:21;;;;;;;13.30;7.83;;;;;;;15.53;55.08;94643.00;1684435;83;21113;-52
2022/05/02 10:37:56;;;;;;;23.62;9.20;;;;;;;15.65;54.89;94645.45;1695364;83;21046;-53
2022/05/02 10:40:40;;;;;;;28.17;17.92;;;;;;;15.83;55.20;94649.38;1697650;83;21150;-54
2022/05/02 10:43:10;;;;;;;17.60;9.60;;;;;;;16.02;54.62;94645.09;1695934;83;21019;-51
2022/05/02 10:45:40;;;;;;;20.08;10.43;;;;;;;16.16;53.81;94640.12;1686168;83;21179;-53
2022/05/02 10:48:15;;;;;;;11.85;7.30;;;;;;;16.19;52.43;94655.02;1683737;83;21007;-51
2022/05/02 10:51:04;;;;;;;11.88;6.97;;;;;;;16.11;52.15;94640.04;1689591;83;21545;-55
2022/05/02 10:54:03;;;;;;;10.38;5.60;;;;;;;16.11;52.24;94639.40;1694946;83;21269;-52
2022/05/02 10:56:38;;;;;;;11.22;7.12;;;;;;;16.15;52.02;94636.43;1691249;83;21041;-54
2022/05/02 10:59:05;;;;;;;18.12;8.18;;;;;;;16.14;52.70;94634.30;1692794;83;21075;-54
2022/05/02 11:02:20;;;;;;;22.77;10.90;;;;;;;16.18;53.54;94626.52;1688893;83;21058;-55
2022/05/02 11:05:06;;;;;;;23.87;11.83;;;;;;;16.25;53.09;94633.03;1585215;88;21070;-54
2022/05/02 11:07:37;;;;;;;17.32;10.00;;;;;;;16.31;53.67;94629.69;1608830;88;21849;-55
2022/05/02 11:10:08;;;;;;;15.32;8.55;;;;;;;16.44;52.59;94628.13;1583102;87;21041;-53
2022/05/02 11:12:39;;;;;;;14.70;6.78;;;;;;;16.58;51.53;94629.29;1642162;85;21585;-53
2022/05/02 11:15:27;;;;;;;14.50;5.60;;;;;;;16.72;50.47;94625.66;1642679;86;21110;-53
2022/05/02 11:21:13;;;;;;;9.88;5.12;;;;;;;16.98;48.88;94629.20;1629627;86;21293;-55
2022/05/02 11:24:14;;;;;;;9.85;4.95;;;;;;;17.16;48.07;94623.30;1633551;86;21106;-54
2022/05/02 11:26:48;;;;;;;10.85;5.97;;;;;;;17.27;47.30;94623.41;1635310;86;21105;-52
2022/05/02 11:29:35;;;;;;;12.35;5.95;;;;;;;17.50;47.17;94623.73;1627955;86;21596;-54
2022/05/02 11:32:05;;;;;;;12.60;5.55;;;;;;;17.73;46.31;94622.63;1638423;86;21030;-54
2022/05/02 11:34:55;;;;;;;13.45;8.25;;;;;;;18.05;45.58;94610.92;1628847;86;21217;-53
2022/05/02 11:37:53;;;;;;;16.25;6.45;;;;;;;18.34;45.06;94610.59;1625750;86;21030;-56
2022/05/02 11:40:29;;;;;;;11.80;5.92;;;;;;;18.62;44.50;94610.83;1642158;86;21019;-54
2022/05/02 11:42:56;;;;;;;5.87;4.30;;;;;;;18.98;43.56;94614.73;1637819;86;21058;-52
2022/05/02 11:45:46;;;;;;;8.10;4.40;;;;;;;19.24;42.29;94616.06;1629274;85;21061;-53
2022/05/02 11:48:37;;;;;;;7.60;4.08;;;;;;;19.59;41.63;94610.72;1622563;86;21295;-51
2022/05/02 11:51:05;;;;;;;6.70;4.50;;;;;;;20.01;40.69;94603.44;1627244;86;21035;-53
2022/05/02 11:53:36;;;;;;;7.58;3.95;;;;;;;20.45;40.69;94603.31;1630437;86;21062;-54
2022/05/02 11:56:04;;;;;;;11.95;4.97;;;;;;;20.91;40.58;94595.74;1627642;86;21076;-52
2022/05/02 11:58:50;;;;;;;5.87;4.33;;;;;;;21.39;41.06;94596.55;1629603;86;21119;-55
2022/05/02 12:01:19;;;;;;;18.05;4.72;;;;;;;22.05;39.67;94582.11;1624503;86;22244;-51
2022/05/02 12:03:53;;;;;;;8.68;4.05;;;;;;;22.82;37.29;94588.22;1629647;86;21022;-54
2022/05/02 12:06:41;;;;;;;4.25;3.25;;;;;;;23.33;35.50;94574.36;1628330;86;21565;-55
2022/05/02 12:09:09;;;;;;;7.45;3.45;;;;;;;23.53;34.17;94571.64;1623104;86;21641;-56
2022/05/02 12:11:55;;;;;;;6.83;4.65;;;;;;;23.84;33.94;94579.30;1571742;88;21009;-55
2022/05/02 12:14:22;;;;;;;11.48;4.58;;;;;;;24.21;35.39;94574.28;1627298;86;21869;-55
2022/05/02 12:17:09;;;;;;;21.00;8.53;;;;;;;24.37;33.54;94574.61;1630312;86;21077;-57
2022/05/02 12:19:39;;;;;;;7.70;4.60;;;;;;;24.10;34.16;94569.63;1643750;86;21383;-55
2022/05/02 12:22:15;;;;;;;5.85;3.37;;;;;;;23.79;34.51;94567.48;1627542;86;22050;-55
2022/05/02 12:24:45;;;;;;;5.12;3.42;;;;;;;23.85;32.96;94576.59;1629022;86;21086;-54
2022/05/02 12:27:14;;;;;;;6.50;3.50;;;;;;;23.78;33.20;94569.52;1622865;86;21113;-54
2022/05/02 12:29:42;;;;;;;5.72;3.17;;;;;;;24.01;33.51;94560.86;1621607;86;21105;-52